createdAt,value
2018-10-16T00:01:56.083Z,9.87
2018-10-16T00:04:24.851Z,9.47
2018-10-16T00:06:53.665Z,9.77
2018-10-16T00:09:22.285Z,9.20
2018-10-16T00:11:59.705Z,9.53
2018-10-16T00:14:28.494Z,9.53
2018-10-16T00:16:57.151Z,8.90
2018-10-16T00:19:25.978Z,8.83
2018-10-16T00:21:55.270Z,9.27
2018-10-16T00:24:24.001Z,10.03
2018-10-16T00:26:52.608Z,9.63
2018-10-16T00:29:21.831Z,9.37
2018-10-16T00:31:50.496Z,10.37
2018-10-16T00:34:19.038Z,9.37
2018-10-16T00:36:47.553Z,9.40
2018-10-16T00:39:17.076Z,9.37
2018-10-16T00:41:49.726Z,9.53
2018-10-16T00:44:18.341Z,9.97
2018-10-16T00:46:46.898Z,9.63
2018-10-16T00:49:15.512Z,9.40
2018-10-16T00:51:44.084Z,9.73
2018-10-16T00:54:12.655Z,9.63
2018-10-16T00:56:41.186Z,8.97
2018-10-16T00:59:09.673Z,8.97
2018-10-16T01:01:38.150Z,8.97
2018-10-16T01:04:07.823Z,9.77
2018-10-16T01:06:37.192Z,9.27
2018-10-16T01:09:13.015Z,10.17
2018-10-16T01:11:41.672Z,9.27
2018-10-16T01:14:10.341Z,9.93
2018-10-16T01:16:38.928Z,9.30
2018-10-16T01:19:07.399Z,9.93
2018-10-16T01:21:36.004Z,10.03
2018-10-16T01:24:04.667Z,10.00
2018-10-16T01:26:33.261Z,9.40
2018-10-16T01:29:01.880Z,10.30
2018-10-16T01:31:30.415Z,9.50
2018-10-16T01:33:59.043Z,8.47
2018-10-16T01:36:27.583Z,10.00
2018-10-16T01:38:56.107Z,9.83
2018-10-16T01:41:24.649Z,10.00
2018-10-16T01:43:53.274Z,9.57
2018-10-16T01:46:21.860Z,9.50
2018-10-16T01:48:50.453Z,9.83
2018-10-16T01:51:19.083Z,10.00
2018-10-16T01:53:47.631Z,9.07
2018-10-16T01:56:16.317Z,9.43
2018-10-16T01:58:44.884Z,10.00
2018-10-16T02:01:13.348Z,9.87
2018-10-16T02:03:41.893Z,8.90
2018-10-16T02:06:10.373Z,8.63
2018-10-16T02:08:38.972Z,8.87
2018-10-16T02:11:07.663Z,9.37
2018-10-16T02:13:36.362Z,10.40
2018-10-16T02:16:04.929Z,9.83
2018-10-16T02:18:33.545Z,9.20
2018-10-16T02:21:02.143Z,10.30
2018-10-16T02:23:30.744Z,9.07
2018-10-16T02:25:59.463Z,9.37
2018-10-16T02:28:28.089Z,9.17
2018-10-16T02:30:56.889Z,9.47
2018-10-16T02:33:25.561Z,9.30
2018-10-16T02:35:54.271Z,9.90
2018-10-16T02:38:23.119Z,8.67
2018-10-16T02:40:51.639Z,9.73
2018-10-16T02:43:20.200Z,9.17
2018-10-16T02:45:48.817Z,9.47
2018-10-16T02:48:18.324Z,9.27
2018-10-16T02:50:46.859Z,9.67
2018-10-16T02:53:15.434Z,8.67
2018-10-16T02:55:44.024Z,8.70
2018-10-16T02:58:12.644Z,9.27
2018-10-16T03:00:41.238Z,9.57
2018-10-16T03:03:09.788Z,9.43
2018-10-16T03:05:38.440Z,8.70
2018-10-16T03:08:07.252Z,9.37
2018-10-16T03:10:35.836Z,8.77
2018-10-16T03:13:04.470Z,9.03
2018-10-16T03:15:33.161Z,9.07
2018-10-16T03:18:01.889Z,9.40
2018-10-16T03:20:30.507Z,9.30
2018-10-16T03:22:59.146Z,9.23
2018-10-16T03:25:27.836Z,9.40
2018-10-16T03:27:56.411Z,9.00
2018-10-16T03:30:25.195Z,8.80
2018-10-16T03:32:53.861Z,9.03
2018-10-16T03:35:22.466Z,9.57
2018-10-16T03:37:51.125Z,9.93
2018-10-16T03:40:19.685Z,9.70
2018-10-16T03:42:48.235Z,9.20
2018-10-16T03:45:16.798Z,9.33
2018-10-16T03:47:45.482Z,10.33
2018-10-16T03:50:14.013Z,9.70
2018-10-16T03:52:42.787Z,9.00
2018-10-16T03:55:11.389Z,8.80
2018-10-16T03:57:40.028Z,10.33
2018-10-16T04:00:09.553Z,10.43
2018-10-16T04:02:38.437Z,9.30
2018-10-16T04:05:07.488Z,9.63
2018-10-16T04:07:36.033Z,9.63
2018-10-16T04:10:04.631Z,10.00
2018-10-16T04:12:33.292Z,10.13
2018-10-16T04:15:01.869Z,10.37
2018-10-16T04:17:30.742Z,9.87
2018-10-16T04:19:59.486Z,10.10
2018-10-16T04:22:29.226Z,9.37
2018-10-16T04:24:57.915Z,9.53
2018-10-16T04:27:26.467Z,9.63
2018-10-16T04:29:55.054Z,9.90
2018-10-16T04:32:23.748Z,9.50
2018-10-16T04:34:52.391Z,9.67
2018-10-16T04:37:21.080Z,9.23
2018-10-16T04:39:49.667Z,9.30
2018-10-16T04:45:02.015Z,9.67
2018-10-16T04:47:30.703Z,9.83
2018-10-16T04:49:59.613Z,9.73
2018-10-16T04:52:28.330Z,10.20
2018-10-16T04:54:57.123Z,9.63
2018-10-16T04:57:25.766Z,10.37
2018-10-16T04:59:54.993Z,10.03
2018-10-16T05:02:23.650Z,9.80
2018-10-16T05:04:52.527Z,9.80
2018-10-16T05:07:21.251Z,9.93
2018-10-16T05:09:50.129Z,9.50
2018-10-16T05:12:18.763Z,9.30
2018-10-16T05:14:47.415Z,9.40
2018-10-16T05:17:16.061Z,9.57
2018-10-16T05:19:44.861Z,10.07
2018-10-16T05:22:13.512Z,9.97
2018-10-16T05:24:42.162Z,9.83
2018-10-16T05:27:10.848Z,9.77
2018-10-16T05:29:39.776Z,9.73
2018-10-16T05:32:08.516Z,10.57
2018-10-16T05:34:37.367Z,10.17
2018-10-16T05:37:06.154Z,10.03
2018-10-16T05:39:34.900Z,9.87
2018-10-16T05:42:03.588Z,10.27
2018-10-16T05:44:32.224Z,10.40
2018-10-16T05:47:01.006Z,9.90
2018-10-16T05:49:29.782Z,10.00
2018-10-16T05:51:58.659Z,10.30
2018-10-16T05:54:27.685Z,10.17
2018-10-16T05:56:56.712Z,9.67
2018-10-16T05:59:26.333Z,9.20
2018-10-16T06:01:55.177Z,10.50
2018-10-16T06:04:23.864Z,10.03
2018-10-16T06:06:52.612Z,10.20
2018-10-16T06:09:21.297Z,10.10
2018-10-16T06:11:50.175Z,10.70
2018-10-16T06:14:19.223Z,9.90
2018-10-16T06:16:48.016Z,10.50
2018-10-16T06:19:16.685Z,10.57
2018-10-16T06:21:45.379Z,10.03
2018-10-16T06:24:14.159Z,10.73
2018-10-16T06:26:46.110Z,9.70
2018-10-16T06:29:19.931Z,10.43
2018-10-16T06:31:48.730Z,10.70
2018-10-16T06:34:17.843Z,10.70
2018-10-16T06:36:46.682Z,10.90
2018-10-16T06:39:15.280Z,10.60
2018-10-16T06:41:44.057Z,11.17
2018-10-16T06:44:12.637Z,10.37
2018-10-16T06:46:41.511Z,11.27
2018-10-16T06:49:10.149Z,10.33
2018-10-16T06:51:38.770Z,10.33
2018-10-16T06:54:07.499Z,10.47
2018-10-16T06:56:36.105Z,10.20
2018-10-16T06:59:04.921Z,10.90
2018-10-16T07:01:33.580Z,10.93
2018-10-16T07:04:02.194Z,10.23
2018-10-16T07:06:30.943Z,10.67
2018-10-16T07:08:59.494Z,11.57
2018-10-16T07:11:28.165Z,10.53
2018-10-16T07:13:56.832Z,11.97
2018-10-16T07:16:26.027Z,10.30
2018-10-16T07:18:54.772Z,11.27
2018-10-16T07:21:23.446Z,11.60
2018-10-16T07:23:52.163Z,11.17
2018-10-16T07:26:20.753Z,11.03
2018-10-16T07:28:49.420Z,12.70
2018-10-16T07:31:18.052Z,11.83
2018-10-16T07:33:46.741Z,12.03
2018-10-16T07:36:15.393Z,11.53
2018-10-16T07:38:44.037Z,12.17
2018-10-16T07:41:12.753Z,12.87
2018-10-16T07:43:41.736Z,13.07
2018-10-16T07:46:10.452Z,12.40
2018-10-16T07:48:39.227Z,11.87
2018-10-16T07:51:07.827Z,13.17
2018-10-16T07:53:36.493Z,13.23
2018-10-16T07:56:05.395Z,13.20
2018-10-16T07:58:34.175Z,12.53
2018-10-16T08:01:03.158Z,12.77
2018-10-16T08:03:32.864Z,13.37
2018-10-16T08:06:02.420Z,13.20
2018-10-16T08:08:31.486Z,13.20
2018-10-16T08:11:01.712Z,13.03
2018-10-16T08:13:30.580Z,12.30
2018-10-16T08:15:59.272Z,13.67
2018-10-16T08:18:27.962Z,12.97
2018-10-16T08:20:56.684Z,13.70
2018-10-16T08:23:25.510Z,13.53
2018-10-16T08:25:54.319Z,13.33
2018-10-16T08:28:23.068Z,13.27
2018-10-16T08:30:52.152Z,13.03
2018-10-16T08:33:24.850Z,13.90
2018-10-16T08:35:54.025Z,13.53
2018-10-16T08:38:29.885Z,13.70
2018-10-16T08:40:59.082Z,13.62
2018-10-16T08:43:44.730Z,13.58
2018-10-16T08:46:24.308Z,13.32
2018-10-16T08:51:43.689Z,13.13
2018-10-16T09:03:14.454Z,12.65
2018-10-16T09:05:43.174Z,13.43
2018-10-16T09:08:11.837Z,12.68
2018-10-16T09:10:40.683Z,15.03
2018-10-16T09:13:09.325Z,13.13
2018-10-16T09:15:38.076Z,13.10
2018-10-16T09:18:07.002Z,12.88
2018-10-16T09:20:35.682Z,12.55
2018-10-16T09:23:04.573Z,12.98
2018-10-16T09:25:33.312Z,13.35
2018-10-16T09:28:02.023Z,13.93
2018-10-16T09:30:30.677Z,13.85
2018-10-16T09:32:59.428Z,14.28
2018-10-16T09:35:28.205Z,14.30
2018-10-16T09:37:56.808Z,13.22
2018-10-16T09:40:25.565Z,14.13
2018-10-16T09:42:54.256Z,12.73
2018-10-16T09:45:22.952Z,14.18
2018-10-16T09:47:51.758Z,13.60
2018-10-16T09:50:20.460Z,13.03
2018-10-16T09:52:49.095Z,13.25
2018-10-16T09:55:17.658Z,13.53
2018-10-16T09:57:46.553Z,13.90
2018-10-16T10:00:20.280Z,12.93
2018-10-16T10:02:50.418Z,13.05
2018-10-16T10:05:21.825Z,13.53
2018-10-16T10:07:50.557Z,12.40
2018-10-16T10:10:19.227Z,12.85
2018-10-16T10:12:48.213Z,11.97
2018-10-16T10:15:16.817Z,12.28
2018-10-16T10:17:45.521Z,11.10
2018-10-16T10:20:14.172Z,16.45
2018-10-16T10:22:42.862Z,12.43
2018-10-16T10:25:12.760Z,12.40
2018-10-16T10:27:46.090Z,10.58
2018-10-16T10:30:15.539Z,10.55
2018-10-16T10:32:49.755Z,10.60
2018-10-16T10:35:19.976Z,10.48
2018-10-16T10:37:53.228Z,7.92
2018-10-16T10:40:22.315Z,7.90
2018-10-16T10:42:59.195Z,8.90
2018-10-16T10:45:34.119Z,8.80
2018-10-16T10:48:03.637Z,7.90
2018-10-16T10:50:32.857Z,8.15
2018-10-16T10:53:02.679Z,8.00
2018-10-16T10:55:31.934Z,8.05
2018-10-16T10:58:08.689Z,9.00
2018-10-16T11:00:38.358Z,9.28
2018-10-16T11:03:08.000Z,8.68
2018-10-16T11:05:37.299Z,7.70
2018-10-16T11:08:06.482Z,6.72
2018-10-16T11:10:35.551Z,7.05
2018-10-16T11:13:05.409Z,6.83
2018-10-16T11:15:34.515Z,6.85
2018-10-16T11:18:03.413Z,10.25
2018-10-16T11:20:32.161Z,7.37
2018-10-16T11:23:01.559Z,6.10
2018-10-16T11:25:30.348Z,6.17
2018-10-16T11:28:01.786Z,5.83
2018-10-16T11:30:30.917Z,4.35
2018-10-16T11:32:59.749Z,4.30
2018-10-16T11:35:28.725Z,5.83
2018-10-16T11:37:57.400Z,5.12
2018-10-16T11:40:26.034Z,5.55
2018-10-16T11:42:54.720Z,5.92
2018-10-16T11:45:23.489Z,5.92
2018-10-16T11:47:52.136Z,6.45
2018-10-16T11:50:21.019Z,6.60
2018-10-16T11:52:50.667Z,7.10
2018-10-16T11:55:19.374Z,6.70
2018-10-16T11:57:48.076Z,7.17
2018-10-16T12:00:18.093Z,7.78
2018-10-16T12:02:47.492Z,7.47
2018-10-16T12:05:16.492Z,7.28
2018-10-16T12:07:45.637Z,7.40
2018-10-16T12:10:14.298Z,7.65
2018-10-16T12:12:42.931Z,6.72
2018-10-16T12:15:11.614Z,6.53
2018-10-16T12:17:45.394Z,6.78
2018-10-16T12:20:18.596Z,5.95
2018-10-16T12:22:48.140Z,6.45
2018-10-16T12:25:16.861Z,6.80
2018-10-16T12:27:45.391Z,6.97
2018-10-16T12:30:13.929Z,5.80
2018-10-16T12:32:43.566Z,6.62
2018-10-16T12:35:12.633Z,6.70
2018-10-16T12:37:41.464Z,6.00
2018-10-16T12:40:10.386Z,6.35
2018-10-16T12:42:39.067Z,6.60
2018-10-16T12:45:08.568Z,6.42
2018-10-16T12:47:37.190Z,7.40
2018-10-16T12:50:06.769Z,6.33
2018-10-16T12:52:35.379Z,6.60
2018-10-16T12:55:04.089Z,6.97
2018-10-16T12:57:39.360Z,6.13
2018-10-16T13:00:08.391Z,6.33
2018-10-16T13:02:37.447Z,6.40
2018-10-16T13:05:07.381Z,6.10
2018-10-16T13:07:37.678Z,6.57
2018-10-16T13:10:10.781Z,6.17
2018-10-16T13:12:39.472Z,6.30
2018-10-16T13:15:09.781Z,5.90
2018-10-16T13:17:38.377Z,6.40
2018-10-16T13:20:07.998Z,6.27
2018-10-16T13:22:36.751Z,6.60
2018-10-16T13:25:06.201Z,6.27
2018-10-16T13:27:35.018Z,6.33
2018-10-16T13:30:04.005Z,6.40
2018-10-16T13:32:32.999Z,5.80
2018-10-16T13:35:01.780Z,6.80
2018-10-16T13:37:30.917Z,6.20
2018-10-16T13:39:59.720Z,6.80
2018-10-16T13:42:28.473Z,6.20
2018-10-16T13:44:57.236Z,7.10
2018-10-16T13:47:26.377Z,6.40
2018-10-16T13:49:55.965Z,6.37
2018-10-16T13:52:24.885Z,6.03
2018-10-16T13:54:53.675Z,6.33
2018-10-16T13:57:22.631Z,7.13
2018-10-16T13:59:51.574Z,6.50
2018-10-16T14:02:20.526Z,6.10
2018-10-16T14:04:49.508Z,6.50
2018-10-16T14:07:18.195Z,6.47
2018-10-16T14:09:46.845Z,6.70
2018-10-16T14:12:15.555Z,6.60
2018-10-16T14:14:44.258Z,6.27
2018-10-16T14:17:12.845Z,6.73
2018-10-16T14:19:41.620Z,6.57
2018-10-16T14:22:10.673Z,6.33
2018-10-16T14:24:39.325Z,7.53
2018-10-16T14:27:08.011Z,7.50
2018-10-16T14:29:36.671Z,8.00
2018-10-16T14:32:05.545Z,7.83
2018-10-16T14:34:34.314Z,8.10
2018-10-16T14:37:02.882Z,9.13
2018-10-16T14:39:31.486Z,8.53
2018-10-16T14:42:00.171Z,9.40
2018-10-16T14:44:28.888Z,8.47
2018-10-16T14:46:57.989Z,7.83
2018-10-16T14:49:27.387Z,8.77
2018-10-16T14:51:56.592Z,8.63
2018-10-16T14:54:26.141Z,8.63
2018-10-16T14:56:55.074Z,9.53
2018-10-16T14:59:23.796Z,9.63
2018-10-16T15:01:53.397Z,9.07
2018-10-16T15:04:22.309Z,16.93
2018-10-16T15:06:51.161Z,14.57
2018-10-16T15:09:19.884Z,10.77
2018-10-16T15:11:48.731Z,10.73
2018-10-16T15:14:17.469Z,9.37
2018-10-16T15:16:46.234Z,9.30
2018-10-16T15:19:14.920Z,8.53
2018-10-16T15:21:43.577Z,9.33
2018-10-16T15:24:12.370Z,9.73
2018-10-16T15:26:41.040Z,8.97
2018-10-16T15:29:09.900Z,13.67
2018-10-16T15:31:38.689Z,11.33
2018-10-16T15:34:07.591Z,9.07
2018-10-16T15:36:36.481Z,9.13
2018-10-16T15:39:08.270Z,17.83
2018-10-16T15:41:37.182Z,12.00
2018-10-16T15:44:06.196Z,12.17
2018-10-16T15:46:34.961Z,18.53
2018-10-16T15:49:03.621Z,11.83
2018-10-16T15:51:32.528Z,10.20
2018-10-16T15:54:01.250Z,10.10
2018-10-16T15:56:30.522Z,10.00
2018-10-16T15:58:59.534Z,8.90
2018-10-16T16:01:28.705Z,9.53
2018-10-16T16:03:59.191Z,9.13
2018-10-16T16:06:28.226Z,9.20
2018-10-16T16:08:57.291Z,8.97
2018-10-16T16:11:26.115Z,9.23
2018-10-16T16:13:54.957Z,9.90
2018-10-16T16:16:24.806Z,8.97
2018-10-16T16:18:53.394Z,8.73
2018-10-16T16:21:22.621Z,12.03
2018-10-16T16:23:51.803Z,11.43
2018-10-16T16:26:20.828Z,9.13
2018-10-16T16:28:49.567Z,10.40
2018-10-16T16:31:18.287Z,9.60
2018-10-16T16:33:47.008Z,8.17
2018-10-16T16:36:15.734Z,9.03
2018-10-16T16:38:44.420Z,8.73
2018-10-16T16:41:13.791Z,8.77
2018-10-16T16:43:42.715Z,9.80
2018-10-16T16:46:11.675Z,10.77
2018-10-16T16:48:40.294Z,9.07
2018-10-16T16:51:09.183Z,9.77
2018-10-16T16:53:38.081Z,10.63
2018-10-16T16:56:06.922Z,11.07
2018-10-16T16:58:36.159Z,10.50
2018-10-16T17:01:05.110Z,10.37
2018-10-16T17:03:33.904Z,10.03
2018-10-16T17:06:02.552Z,9.07
2018-10-16T17:08:31.158Z,9.33
2018-10-16T17:11:00.034Z,8.40
2018-10-16T17:13:29.027Z,11.40
2018-10-16T17:15:57.824Z,8.80
2018-10-16T17:18:26.549Z,10.30
2018-10-16T17:20:55.360Z,11.00
2018-10-16T17:23:25.274Z,8.57
2018-10-16T17:25:54.360Z,9.83
2018-10-16T17:28:22.752Z,9.23
2018-10-16T17:30:51.855Z,8.67
2018-10-16T17:33:21.148Z,10.10
2018-10-16T17:35:50.124Z,8.83
2018-10-16T17:38:19.037Z,8.83
2018-10-16T17:40:47.831Z,10.40
2018-10-16T17:43:16.915Z,9.00
2018-10-16T17:45:47.364Z,11.83
2018-10-16T17:48:16.138Z,8.87
2018-10-16T17:50:45.184Z,10.03
2018-10-16T17:53:14.131Z,10.13
2018-10-16T17:55:43.101Z,9.37
2018-10-16T17:58:12.041Z,9.20
2018-10-16T18:00:43.690Z,8.90
2018-10-16T18:03:12.731Z,20.00
2018-10-16T18:05:41.713Z,14.80
2018-10-16T18:08:10.607Z,10.00
2018-10-16T18:10:39.414Z,8.80
2018-10-16T18:13:08.252Z,10.00
2018-10-16T18:15:37.004Z,9.97
2018-10-16T18:18:06.359Z,11.87
2018-10-16T18:20:36.701Z,14.03
2018-10-16T18:23:06.391Z,11.13
2018-10-16T18:25:35.126Z,9.37
2018-10-16T18:28:03.955Z,9.80
2018-10-16T18:30:32.718Z,9.23
2018-10-16T18:33:01.855Z,8.67
2018-10-16T18:35:31.561Z,9.93
2018-10-16T18:38:00.300Z,10.07
2018-10-16T18:40:30.639Z,10.73
2018-10-16T18:44:30.047Z,9.20
2018-10-16T18:46:59.402Z,10.37
2018-10-16T18:49:28.363Z,9.80
2018-10-16T18:51:59.357Z,10.27
2018-10-16T18:54:29.662Z,9.63
2018-10-16T18:56:59.175Z,11.00
2018-10-16T18:59:27.845Z,10.33
2018-10-16T19:01:56.521Z,10.63
2018-10-16T19:04:25.143Z,10.73
2018-10-16T19:06:53.780Z,10.37
2018-10-16T19:09:22.540Z,10.40
2018-10-16T19:11:52.207Z,9.80
2018-10-16T19:14:20.981Z,9.73
2018-10-16T19:16:50.271Z,9.67
2018-10-16T19:19:19.050Z,9.50
2018-10-16T19:21:47.801Z,10.87
2018-10-16T19:24:16.520Z,9.90
2018-10-16T19:26:45.532Z,9.10
2018-10-16T19:29:15.769Z,9.70
2018-10-16T19:31:44.559Z,9.63
2018-10-16T19:34:13.607Z,9.70
2018-10-16T19:36:42.486Z,9.57
2018-10-16T19:39:12.356Z,9.67
2018-10-16T19:41:41.464Z,9.37
2018-10-16T19:44:10.127Z,10.63
2018-10-16T19:46:38.791Z,9.83
2018-10-16T19:49:08.147Z,9.60
2018-10-16T19:51:37.059Z,9.53
2018-10-16T19:54:06.071Z,12.03
2018-10-16T19:56:34.789Z,9.47
2018-10-16T19:59:04.444Z,10.20
2018-10-16T20:01:33.226Z,10.57
2018-10-16T20:04:02.034Z,13.77
2018-10-16T20:06:30.646Z,11.13
2018-10-16T20:08:59.496Z,10.30
2018-10-16T20:11:28.295Z,10.87
2018-10-16T20:13:57.073Z,11.77
2018-10-16T20:16:25.723Z,12.83
2018-10-16T20:18:54.421Z,13.10
2018-10-16T20:21:23.242Z,15.03
2018-10-16T20:23:53.262Z,12.40
2018-10-16T20:26:21.879Z,11.83
2018-10-16T20:28:50.578Z,11.97
2018-10-16T20:31:19.282Z,12.33
2018-10-16T20:33:47.967Z,11.10
2018-10-16T20:36:16.871Z,11.40
2018-10-16T20:38:45.520Z,10.07
2018-10-16T20:41:14.087Z,9.30
2018-10-16T20:43:42.743Z,10.80
2018-10-16T20:46:11.444Z,10.33
2018-10-16T20:48:40.008Z,10.97
2018-10-16T20:51:08.751Z,9.30
2018-10-16T20:53:37.368Z,9.70
2018-10-16T20:56:06.567Z,10.23
2018-10-16T20:58:35.168Z,9.10
2018-10-16T21:01:03.765Z,10.70
2018-10-16T21:03:32.532Z,10.90
2018-10-16T21:06:01.578Z,11.33
2018-10-16T21:08:30.154Z,10.53
2018-10-16T21:10:59.103Z,9.93
2018-10-16T21:13:27.854Z,10.80
2018-10-16T21:15:56.882Z,11.50
2018-10-16T21:18:25.672Z,9.93
2018-10-16T21:20:55.151Z,10.97
2018-10-16T21:23:24.004Z,10.70
2018-10-16T21:25:52.610Z,10.57
2018-10-16T21:28:21.327Z,10.73
2018-10-16T21:30:49.993Z,10.57
2018-10-16T21:33:18.762Z,10.30
2018-10-16T21:35:47.335Z,10.33
2018-10-16T21:38:15.965Z,10.37
2018-10-16T21:40:44.578Z,10.63
2018-10-16T21:43:13.308Z,10.20
2018-10-16T21:45:42.139Z,10.67
2018-10-16T21:48:10.721Z,10.70
2018-10-16T21:50:39.338Z,10.60
2018-10-16T21:53:07.972Z,10.83
2018-10-16T21:55:36.506Z,10.40
2018-10-16T21:58:05.317Z,11.47
2018-10-16T22:00:39.925Z,12.07
2018-10-16T22:03:08.749Z,11.13
2018-10-16T22:05:37.507Z,11.30
2018-10-16T22:08:06.210Z,11.20
2018-10-16T22:10:35.851Z,10.73
2018-10-16T22:13:08.619Z,12.10
2018-10-16T22:15:37.238Z,12.67
2018-10-16T22:18:05.814Z,11.37
2018-10-16T22:20:34.507Z,11.53
2018-10-16T22:23:03.309Z,11.63
2018-10-16T22:25:31.937Z,10.50
2018-10-16T22:28:01.751Z,10.63
2018-10-16T22:30:30.383Z,11.73
2018-10-16T22:32:59.008Z,11.73
2018-10-16T22:35:27.652Z,11.20
2018-10-16T22:37:56.327Z,11.20
2018-10-16T22:40:24.995Z,11.63
2018-10-16T22:42:53.847Z,11.60
2018-10-16T22:45:22.546Z,14.40
2018-10-16T22:47:51.335Z,11.37
2018-10-16T22:50:20.002Z,10.87
2018-10-16T22:52:48.688Z,11.57
2018-10-16T22:55:17.566Z,12.07
2018-10-16T22:57:46.261Z,11.30
2018-10-16T23:00:17.787Z,11.10
2018-10-16T23:02:47.632Z,11.43
2018-10-16T23:05:16.542Z,11.63
2018-10-16T23:07:46.296Z,11.17
2018-10-16T23:10:15.408Z,11.70
2018-10-16T23:12:44.496Z,11.20
2018-10-16T23:15:13.118Z,11.97
2018-10-16T23:17:41.901Z,10.87
2018-10-16T23:20:11.960Z,10.73
2018-10-16T23:22:40.746Z,11.67
2018-10-16T23:25:09.545Z,11.97
2018-10-16T23:27:38.298Z,11.07
2018-10-16T23:30:07.462Z,10.90
2018-10-16T23:32:36.408Z,11.77
2018-10-16T23:35:05.362Z,12.47
2018-10-16T23:37:34.108Z,11.67
2018-10-16T23:40:02.735Z,11.07
2018-10-16T23:42:31.537Z,12.90
2018-10-16T23:45:00.513Z,13.30
2018-10-16T23:47:29.384Z,12.03
2018-10-16T23:49:58.126Z,11.03
2018-10-16T23:52:26.890Z,11.70
2018-10-16T23:54:55.768Z,12.17
2018-10-16T23:57:24.613Z,11.00
2018-10-16T23:59:53.464Z,11.43
